Airfield :
LOGIN :

Register | Disclaimer

   EN    FR    IT 

 










Legend :    VFR   Marginal VFR   IFR   Intensive IFR   Very Intensive IFR
Visi :
Ceiling :
>= 8 km
>= 3000ft
5 to 8 km
1000 to 3000 ft
1500m to 5 km
500 to 1000 ft
800 to 1500m
200 to 500 ft
< 800m
< 200 ft
Symbols :   Thunderstorms  Fog  Heavy snow  Heavy precipitations  Wind > 20 kt
SIGMETs :     Misc.  Thunderstorms  Icing  Turbulence  Mountain Waves  Volcanic Ashes







- Airport Elevation : 70 ft
- IATA code : LMP


LICD - Lampedusa

EXPIRED METARs :
  • 191850Z 03010KT CAVOK 17/15 Q1021
  • 191750Z 03010KT CAVOK 17/15 Q1021

TAF TAF LICD
Valid from the 19 at 18:00 until the 20 at 18:00 UTC


191700Z 1918/2018 06010KT 8000 SCT020
BECMG 1920/1922 VRB05KT
No reported NOTAMs for that airfield.
1 SIGMET reported for the Malta FIR (LMMM) :
 
Severe turbulence
LMMM SIGMET 4 VALID 191934/192334 LMML
LMMM MALTA FIR SEV TURB FCST MALTA FIR N OF N3550 FL190/310 MOV E NC=



MET'MAP, your aeronautical weather chart ! - Copyright ORBIFLY December 2007 - Disclaimer

ORBIFLY MET'MAP TEAM :

Programming & Development : Alexandra Zaïnal
Concept & Development : Baudouin d'Aumeries
Co-Development & Prog : Marc-Olivier Méhu
Technical & hardware support : Manuel Goepfert

Contact : metmap@orbifly.com




SOURCES & CREDITS :

   NOAA